Time;durP1;ratioP1;P1;durP2;ratioP2;P2;SDS_P1;SDS_P2;PMS_P1;PMS_P2;Temp;Humidity;BMP_temperature;BMP_pressure;BME280_temperature;BME280_humidity;BME280_pressure;Samples;Min_cycle;Max_cycle;Signal;HPM_P1;HPM_P2
2022/08/17 00:00:52;;;;;;;51.47;34.22;;;;;;;20.94;100.00;100934.13;4995605;28;20049;-74
2022/08/17 00:03:29;;;;;;;45.03;34.53;;;;;;;20.72;100.00;100935.53;4980263;28;20038;-75
2022/08/17 00:05:59;;;;;;;49.67;35.20;;;;;;;20.80;100.00;100938.28;4990694;28;20054;-74
2022/08/17 00:08:37;;;;;;;45.90;33.95;;;;;;;20.73;100.00;100942.63;4990578;28;20847;-80
2022/08/17 00:11:10;;;;;;;45.17;33.45;;;;;;;20.84;100.00;100928.81;4991401;28;20115;-75
2022/08/17 00:13:38;;;;;;;49.50;35.17;;;;;;;20.61;100.00;100924.97;4982323;28;20069;-75
2022/08/17 00:16:08;;;;;;;44.47;33.13;;;;;;;20.47;100.00;100925.53;4995062;28;20038;-75
2022/08/17 00:18:34;;;;;;;48.92;34.20;;;;;;;20.33;100.00;100916.09;4994917;28;20403;-73
2022/08/17 00:21:02;;;;;;;55.55;38.33;;;;;;;20.03;100.00;100907.44;4972688;28;20049;-77
2022/08/17 00:23:27;;;;;;;51.90;36.95;;;;;;;20.22;100.00;100903.69;4990819;28;20132;-77
2022/08/17 00:25:53;;;;;;;52.53;37.72;;;;;;;20.21;100.00;100901.97;4993687;28;20608;-73
2022/08/17 00:28:20;;;;;;;52.78;35.50;;;;;;;20.22;100.00;100897.41;4986758;28;20065;-73
2022/08/17 00:30:49;;;;;;;49.45;34.35;;;;;;;20.08;100.00;100894.28;4987147;28;20399;-74
2022/08/17 00:33:18;;;;;;;53.22;37.17;;;;;;;19.91;100.00;100895.16;4987358;28;20038;-73
2022/08/17 00:35:46;;;;;;;51.88;36.83;;;;;;;19.96;100.00;100902.81;4988440;28;20033;-72
2022/08/17 00:38:12;;;;;;;56.15;36.95;;;;;;;20.16;100.00;100898.91;4980845;28;20045;-74
2022/08/17 00:40:45;;;;;;;50.42;34.15;;;;;;;20.32;100.00;100899.00;4990914;28;20642;-74
2022/08/17 00:43:38;;;;;;;49.55;34.85;;;;;;;20.24;100.00;100898.13;4987079;28;20038;-77
2022/08/17 00:46:07;;;;;;;56.30;35.28;;;;;;;20.08;100.00;100902.41;4972238;28;20338;-76
2022/08/17 00:48:34;;;;;;;47.95;36.15;;;;;;;20.07;100.00;100889.84;4977230;28;20144;-73
2022/08/17 00:51:14;;;;;;;54.05;35.47;;;;;;;20.25;100.00;100892.53;5016754;23;20757;-70
2022/08/17 00:53:46;;;;;;;47.42;32.90;;;;;;;20.26;100.00;100891.53;4991568;28;20057;-70
2022/08/17 00:56:19;;;;;;;50.25;35.17;;;;;;;20.21;100.00;100885.72;4986287;28;20038;-70
2022/08/17 00:58:47;;;;;;;51.65;34.75;;;;;;;20.30;100.00;100890.19;4992822;28;20795;-70
2022/08/17 01:01:13;;;;;;;45.60;33.13;;;;;;;20.09;100.00;100889.72;4974615;28;20613;-70
2022/08/17 01:03:39;;;;;;;48.25;33.72;;;;;;;20.06;100.00;100884.59;4974683;28;20030;-70
2022/08/17 01:06:07;;;;;;;50.10;33.88;;;;;;;20.14;100.00;100885.53;4983773;28;20072;-70
2022/08/17 01:08:32;;;;;;;48.03;33.63;;;;;;;20.24;100.00;100882.72;4987550;28;21662;-70
2022/08/17 01:11:01;;;;;;;52.70;35.40;;;;;;;20.26;100.00;100880.69;4991054;28;20033;-70
2022/08/17 01:13:32;;;;;;;47.53;34.50;;;;;;;20.24;100.00;100877.31;4987813;28;20661;-70
2022/08/17 01:16:04;;;;;;;44.95;33.08;;;;;;;20.33;100.00;100875.47;4987070;28;20038;-71
2022/08/17 01:18:31;;;;;;;50.60;35.05;;;;;;;20.22;100.00;100882.00;4984575;28;20061;-71
2022/08/17 01:21:03;;;;;;;48.85;34.67;;;;;;;20.25;100.00;100872.72;4972254;28;20042;-71
2022/08/17 01:23:28;;;;;;;49.07;34.03;;;;;;;19.74;100.00;100874.38;4986927;28;20037;-71
2022/08/17 01:25:57;;;;;;;45.28;34.28;;;;;;;19.66;100.00;100875.13;4973627;28;20038;-71
2022/08/17 01:28:26;;;;;;;47.03;34.85;;;;;;;19.85;100.00;100874.13;4985591;28;20050;-70
2022/08/17 01:30:54;;;;;;;52.17;35.80;;;;;;;19.78;100.00;100873.03;4990958;28;20048;-71
2022/08/17 01:33:19;;;;;;;49.85;36.35;;;;;;;19.77;100.00;100868.63;4989905;28;20034;-71
2022/08/17 01:35:45;;;;;;;54.00;36.35;;;;;;;19.50;100.00;100864.16;4992929;28;20042;-70
2022/08/17 01:38:10;;;;;;;48.05;34.38;;;;;;;19.38;100.00;100864.38;4988780;28;20041;-71
2022/08/17 01:40:42;;;;;;;58.55;36.42;;;;;;;19.45;100.00;100861.91;4998018;28;20411;-71
2022/08/17 01:43:13;;;;;;;53.27;34.87;;;;;;;19.59;100.00;100869.50;4990686;28;20045;-71
2022/08/17 01:45:43;;;;;;;50.28;36.97;;;;;;;19.61;100.00;100864.78;4995685;28;20530;-71
2022/08/17 01:48:10;;;;;;;51.88;34.92;;;;;;;19.64;100.00;100864.50;4986801;28;20076;-71
2022/08/17 01:50:38;;;;;;;54.50;37.63;;;;;;;19.53;100.00;100864.69;4988333;28;20438;-71
2022/08/17 01:53:08;;;;;;;53.92;37.65;;;;;;;19.48;100.00;100860.72;4979078;28;20124;-71
2022/08/17 01:55:45;;;;;;;56.65;37.90;;;;;;;19.43;100.00;100863.91;4988107;28;20030;-72
2022/08/17 01:58:11;;;;;;;54.35;36.60;;;;;;;19.40;100.00;100864.22;4972225;28;20111;-71
2022/08/17 02:00:39;;;;;;;53.55;37.72;;;;;;;19.34;100.00;100859.44;4991695;28;20025;-71
2022/08/17 02:03:06;;;;;;;60.08;37.95;;;;;;;19.26;100.00;100860.19;4986992;28;20148;-71
2022/08/17 02:05:34;;;;;;;52.65;37.75;;;;;;;19.09;100.00;100858.31;4971256;28;20069;-71
2022/08/17 02:08:03;;;;;;;54.83;38.53;;;;;;;19.26;100.00;100860.19;4988811;28;20048;-71
2022/08/17 02:10:29;;;;;;;57.75;40.08;;;;;;;19.18;100.00;100861.94;4992214;28;20533;-71
2022/08/17 02:12:55;;;;;;;53.42;37.25;;;;;;;19.23;100.00;100857.81;4977045;28;20049;-71
2022/08/17 02:15:21;;;;;;;56.35;36.83;;;;;;;19.03;100.00;100867.03;4985969;28;20812;-71
2022/08/17 02:17:47;;;;;;;63.22;39.55;;;;;;;19.06;100.00;100864.03;4976890;28;20187;-71
2022/08/17 02:20:12;;;;;;;59.63;39.72;;;;;;;18.90;100.00;100870.09;4993411;28;20061;-72
2022/08/17 02:22:40;;;;;;;55.40;39.00;;;;;;;18.82;100.00;100862.72;4998004;28;20983;-71
2022/08/17 02:25:08;;;;;;;58.33;39.28;;;;;;;18.88;100.00;100859.44;4998975;28;20087;-71
2022/08/17 02:27:35;;;;;;;63.53;40.70;;;;;;;18.98;100.00;100861.25;4994006;28;20045;-71
2022/08/17 02:30:04;;;;;;;65.72;41.03;;;;;;;18.91;100.00;100860.13;5000568;28;20792;-71
2022/08/17 02:32:29;;;;;;;58.03;38.33;;;;;;;18.87;100.00;100856.88;4991497;28;20041;-71
2022/08/17 02:34:56;;;;;;;54.05;38.35;;;;;;;18.85;100.00;100851.63;4993763;28;20497;-72
2022/08/17 02:37:23;;;;;;;55.80;38.47;;;;;;;18.88;100.00;100853.19;4991102;28;20052;-71
2022/08/17 02:39:48;;;;;;;62.03;40.72;;;;;;;18.89;100.00;100849.47;4993039;28;20053;-70
2022/08/17 02:42:14;;;;;;;53.35;35.83;;;;;;;18.51;100.00;100845.06;4994410;28;20924;-70
2022/08/17 02:44:40;;;;;;;58.38;39.25;;;;;;;18.68;100.00;100847.03;4996823;28;20034;-71
2022/08/17 02:47:08;;;;;;;63.15;39.97;;;;;;;18.75;100.00;100850.81;4989648;28;20047;-71
2022/08/17 02:49:34;;;;;;;65.68;41.15;;;;;;;18.69;100.00;100842.47;4988934;28;20045;-70
2022/08/17 02:52:03;;;;;;;64.47;41.03;;;;;;;18.63;100.00;100849.31;4979405;28;20125;-70
2022/08/17 02:54:28;;;;;;;67.07;40.17;;;;;;;18.71;100.00;100846.72;4987995;28;20029;-70
2022/08/17 02:56:54;;;;;;;63.75;39.90;;;;;;;18.72;100.00;100844.84;4990115;28;20046;-70
2022/08/17 02:59:19;;;;;;;62.47;40.70;;;;;;;18.76;100.00;100854.38;4989629;28;20051;-71
2022/08/17 03:01:45;;;;;;;60.03;41.55;;;;;;;18.84;100.00;100847.22;4994168;28;20081;-70
2022/08/17 03:04:10;;;;;;;60.20;40.08;;;;;;;18.82;100.00;100849.22;4994372;28;20026;-70
2022/08/17 03:06:36;;;;;;;59.45;40.78;;;;;;;18.73;100.00;100849.28;4994094;28;20038;-70
2022/08/17 03:09:02;;;;;;;59.47;38.95;;;;;;;18.52;100.00;100841.38;4990719;28;20888;-69
2022/08/17 03:11:27;;;;;;;59.90;41.38;;;;;;;18.55;100.00;100847.31;4994178;28;20136;-70
2022/08/17 03:13:53;;;;;;;63.20;41.10;;;;;;;18.65;100.00;100841.88;4993576;28;20611;-70
2022/08/17 03:16:19;;;;;;;66.35;42.25;;;;;;;18.63;100.00;100839.34;4985602;28;20037;-69
2022/08/17 03:18:44;;;;;;;60.60;40.50;;;;;;;18.73;100.00;100842.03;4978418;28;20928;-70
2022/08/17 03:21:10;;;;;;;65.82;42.03;;;;;;;18.70;100.00;100836.91;4996884;28;20064;-69
2022/08/17 03:23:39;;;;;;;62.90;42.00;;;;;;;18.64;100.00;100835.63;4988979;28;20041;-70
2022/08/17 03:26:09;;;;;;;63.95;42.25;;;;;;;18.65;100.00;100833.78;4975355;28;20038;-70
2022/08/17 03:28:36;;;;;;;62.75;40.28;;;;;;;18.64;100.00;100832.94;4997070;28;20119;-70
2022/08/17 03:31:02;;;;;;;59.00;40.30;;;;;;;18.75;100.00;100839.16;4970651;28;20043;-70
2022/08/17 03:33:28;;;;;;;60.00;40.15;;;;;;;18.79;100.00;100841.41;4992142;28;20037;-71
2022/08/17 03:35:53;;;;;;;64.40;43.17;;;;;;;18.84;100.00;100849.94;4960506;28;20298;-71
2022/08/17 03:38:20;;;;;;;72.68;42.42;;;;;;;18.86;100.00;100849.75;4972363;28;20037;-72
2022/08/17 03:40:47;;;;;;;60.53;39.90;;;;;;;18.83;100.00;100848.22;4992481;28;20052;-71
2022/08/17 03:43:12;;;;;;;63.60;41.90;;;;;;;18.71;100.00;100841.31;4987716;28;20026;-71
2022/08/17 03:56:48;;;;;;;61.55;40.60;;;;;;;18.84;100.00;100841.81;4991149;28;20531;-71
2022/08/17 03:59:17;;;;;;;64.75;41.80;;;;;;;18.81;100.00;100846.66;4985391;28;20033;-71
2022/08/17 04:01:48;;;;;;;60.42;41.10;;;;;;;18.81;100.00;100842.09;4993766;28;20088;-70
2022/08/17 04:04:14;;;;;;;62.50;41.07;;;;;;;18.85;100.00;100837.25;4989036;28;20037;-71
2022/08/17 04:06:41;;;;;;;59.30;40.47;;;;;;;18.84;100.00;100838.28;4988894;28;20045;-71
2022/08/17 04:09:07;;;;;;;62.88;41.80;;;;;;;18.77;100.00;100839.84;4997827;28;20077;-71
2022/08/17 04:11:34;;;;;;;60.53;42.25;;;;;;;18.80;100.00;100836.88;4987039;28;20045;-71
2022/08/17 04:14:01;;;;;;;61.65;40.25;;;;;;;18.79;100.00;100830.63;4991244;28;20169;-71
2022/08/17 04:16:26;;;;;;;63.30;40.22;;;;;;;18.84;100.00;100838.28;4995632;28;20185;-71
2022/08/17 04:18:52;;;;;;;60.92;39.13;;;;;;;18.79;100.00;100833.31;4976453;28;21826;-71
2022/08/17 04:21:21;;;;;;;61.53;42.72;;;;;;;18.77;100.00;100840.69;5000084;28;20463;-71
2022/08/17 04:23:47;;;;;;;64.00;40.95;;;;;;;18.72;100.00;100836.75;4992834;28;20044;-70
2022/08/17 04:26:13;;;;;;;69.03;41.10;;;;;;;18.79;100.00;100838.72;4991783;28;20038;-71
2022/08/17 04:28:41;;;;;;;62.28;41.08;;;;;;;18.82;100.00;100837.56;4990541;28;20037;-71
2022/08/17 04:31:08;;;;;;;64.60;41.08;;;;;;;18.87;100.00;100825.28;4976292;28;20208;-70
2022/08/17 04:33:34;;;;;;;62.95;40.95;;;;;;;18.83;100.00;100832.03;4989444;28;20030;-69
2022/08/17 04:36:01;;;;;;;61.88;40.90;;;;;;;18.91;100.00;100838.50;4989243;28;20041;-71
2022/08/17 04:38:30;;;;;;;61.05;40.53;;;;;;;18.96;100.00;100839.75;4972334;28;20121;-71
2022/08/17 04:43:44;;;;;;;58.72;39.85;;;;;;;18.93;100.00;100836.53;4986246;28;20698;-71
2022/08/17 04:46:13;;;;;;;59.05;39.50;;;;;;;18.93;100.00;100840.06;4974872;28;20104;-71
2022/08/17 04:48:42;;;;;;;58.33;38.92;;;;;;;18.97;100.00;100849.56;4988941;28;20125;-72
2022/08/17 04:51:11;;;;;;;56.92;38.30;;;;;;;18.92;100.00;100838.34;4996961;28;20056;-69
2022/08/17 04:53:38;;;;;;;58.42;42.20;;;;;;;18.94;100.00;100841.75;4994109;28;20765;-72
2022/08/17 04:56:04;;;;;;;59.45;39.30;;;;;;;19.13;100.00;100840.81;4993609;28;20491;-71
2022/08/17 04:58:30;;;;;;;63.20;41.08;;;;;;;19.11;100.00;100840.94;4993716;28;20937;-72
2022/08/17 05:00:55;;;;;;;56.72;37.78;;;;;;;19.28;100.00;100833.84;4988604;28;20037;-71
2022/08/17 05:03:21;;;;;;;61.75;39.30;;;;;;;19.17;100.00;100841.31;4979166;28;20093;-72
2022/08/17 05:05:48;;;;;;;63.15;40.05;;;;;;;19.06;100.00;100831.59;4987273;28;20784;-71
2022/08/17 05:08:16;;;;;;;56.38;40.25;;;;;;;19.23;100.00;100841.59;4984617;28;20038;-72
2022/08/17 05:10:42;;;;;;;56.72;38.25;;;;;;;19.50;100.00;100837.09;4973943;28;20037;-71
2022/08/17 05:13:11;;;;;;;57.33;37.72;;;;;;;19.54;100.00;100836.63;4989316;28;20139;-71
2022/08/17 05:15:39;;;;;;;53.53;37.08;;;;;;;19.51;100.00;100842.34;4975745;28;20144;-71
2022/08/17 05:18:06;;;;;;;53.47;37.65;;;;;;;19.62;100.00;100843.97;4968388;28;20034;-70
2022/08/17 05:20:33;;;;;;;53.80;37.90;;;;;;;19.87;100.00;100839.63;4984808;28;20080;-71
2022/08/17 05:23:05;;;;;;;59.35;36.88;;;;;;;19.97;100.00;100837.66;4987384;28;20511;-71
2022/08/17 05:25:34;;;;;;;52.33;36.55;;;;;;;19.95;100.00;100834.28;4964832;28;20131;-71
2022/08/17 05:28:00;;;;;;;55.85;35.20;;;;;;;19.93;100.00;100839.03;4986994;28;20045;-71
2022/08/17 05:30:26;;;;;;;56.97;36.47;;;;;;;20.06;100.00;100842.13;4985025;28;20052;-71
2022/08/17 05:32:56;;;;;;;53.03;34.83;;;;;;;20.43;100.00;100838.28;4963785;28;20103;-71
2022/08/17 05:35:22;;;;;;;52.40;34.85;;;;;;;20.58;100.00;100833.16;4981051;28;20701;-71
2022/08/17 05:37:48;;;;;;;50.58;34.80;;;;;;;20.70;100.00;100834.56;4985118;28;20048;-71
2022/08/17 05:40:14;;;;;;;51.42;33.85;;;;;;;20.49;100.00;100832.28;4966692;28;20110;-71
2022/08/17 05:42:40;;;;;;;49.88;34.70;;;;;;;20.48;100.00;100840.53;4984898;28;20041;-71
2022/08/17 05:45:05;;;;;;;45.78;33.13;;;;;;;20.56;100.00;100843.31;4987222;28;20780;-71
2022/08/17 05:47:31;;;;;;;51.22;33.65;;;;;;;20.82;100.00;100843.25;4986592;28;20045;-71
2022/08/17 05:49:58;;;;;;;51.65;33.00;;;;;;;21.01;100.00;100845.69;4984937;28;20033;-71
2022/08/17 05:52:29;;;;;;;48.65;34.20;;;;;;;21.01;100.00;100844.84;4988405;28;20616;-71
2022/08/17 05:55:20;;;;;;;45.10;32.58;;;;;;;20.96;100.00;100842.63;4984206;28;20041;-70
2022/08/17 05:57:48;;;;;;;50.03;32.50;;;;;;;21.02;100.00;100857.38;4997645;28;20583;-71
2022/08/17 06:00:19;;;;;;;47.88;31.90;;;;;;;21.05;100.00;100851.63;4978932;28;20029;-71
2022/08/17 06:03:15;;;;;;;48.20;32.63;;;;;;;20.99;100.00;100855.88;4976884;28;20041;-70
2022/08/17 06:05:47;;;;;;;43.38;29.55;;;;;;;20.74;100.00;100854.06;4995986;28;20048;-71
2022/08/17 06:08:30;;;;;;;49.22;31.50;;;;;;;20.74;100.00;100865.75;4990512;28;20033;-71
2022/08/17 06:11:14;;;;;;;43.08;29.40;;;;;;;20.70;100.00;100888.78;4991230;28;20087;-71
2022/08/17 06:13:49;;;;;;;43.55;29.40;;;;;;;20.60;100.00;100917.84;4974897;28;20034;-70
2022/08/17 06:16:24;;;;;;;40.97;29.65;;;;;;;20.63;100.00;100902.13;4991800;28;20042;-71
2022/08/17 06:18:58;;;;;;;46.88;31.17;;;;;;;20.50;100.00;100881.91;4996222;28;20157;-71
2022/08/17 06:21:26;;;;;;;41.85;29.73;;;;;;;20.66;100.00;100893.66;4992229;28;20045;-71
2022/08/17 06:24:05;;;;;;;44.90;30.55;;;;;;;20.79;100.00;100906.78;4989193;28;20038;-70
2022/08/17 06:26:36;;;;;;;43.35;29.65;;;;;;;20.93;100.00;100894.44;4990791;28;20034;-71
2022/08/17 06:29:07;;;;;;;43.38;29.73;;;;;;;20.99;100.00;100898.41;4975419;28;20041;-71
2022/08/17 06:31:37;;;;;;;41.67;29.40;;;;;;;21.02;100.00;100906.19;4990627;28;20740;-71
2022/08/17 06:34:07;;;;;;;41.90;29.92;;;;;;;21.01;100.00;100908.06;4989470;28;20289;-71
2022/08/17 06:36:47;;;;;;;47.38;29.13;;;;;;;21.08;100.00;100908.25;4995726;28;20045;-71
2022/08/17 06:39:47;;;;;;;45.90;30.40;;;;;;;20.77;100.00;100897.94;4993622;28;21807;-71
2022/08/17 06:42:25;;;;;;;54.53;30.88;;;;;;;20.72;100.00;100900.28;4993144;28;20049;-71
2022/08/17 06:45:12;;;;;;;47.33;31.00;;;;;;;20.88;100.00;100888.66;4988287;28;20042;-71
2022/08/17 06:47:52;;;;;;;46.20;31.60;;;;;;;20.96;100.00;100891.44;4990921;28;20439;-70
2022/08/17 06:50:27;;;;;;;45.45;30.58;;;;;;;21.04;100.00;100896.03;4990940;28;20048;-71
2022/08/17 06:53:12;;;;;;;43.78;30.23;;;;;;;21.06;100.00;100885.88;4992366;28;20141;-71
2022/08/17 06:55:53;;;;;;;47.50;29.55;;;;;;;21.33;100.00;100892.91;4991679;28;20029;-71
2022/08/17 06:58:21;;;;;;;46.90;30.60;;;;;;;21.69;100.00;100880.78;4991814;28;20038;-70
2022/08/17 07:00:49;;;;;;;42.55;28.85;;;;;;;21.91;100.00;100883.84;4993141;28;20059;-71
2022/08/17 07:03:38;;;;;;;44.17;29.83;;;;;;;22.11;99.02;100884.38;4973946;28;20068;-71
2022/08/17 07:06:31;;;;;;;41.67;30.88;;;;;;;22.19;97.32;100884.38;4993599;28;20061;-71
2022/08/17 07:09:01;;;;;;;41.45;30.35;;;;;;;22.36;98.10;100899.63;4989359;28;20037;-71
2022/08/17 07:11:51;;;;;;;41.75;30.48;;;;;;;22.41;98.26;100899.94;4987010;28;20042;-71
2022/08/17 07:14:29;;;;;;;42.90;30.88;;;;;;;22.57;94.59;100909.09;4986173;28;20050;-72
2022/08/17 07:16:57;;;;;;;45.40;30.60;;;;;;;22.88;92.61;100907.31;4986472;28;20087;-71
2022/08/17 07:19:26;;;;;;;45.38;30.35;;;;;;;22.82;92.47;100907.97;4984925;28;20041;-71
2022/08/17 07:22:13;;;;;;;45.75;29.40;;;;;;;22.56;94.83;100908.25;4987845;28;20064;-71
2022/08/17 07:24:50;;;;;;;48.30;32.13;;;;;;;22.63;94.43;100905.66;4982825;28;20045;-71
2022/08/17 07:27:31;;;;;;;43.28;29.08;;;;;;;22.19;96.32;100906.09;4986435;28;20115;-70
2022/08/17 07:30:05;;;;;;;47.70;31.60;;;;;;;22.30;99.99;100896.75;4977899;28;20046;-71
2022/08/17 07:32:40;;;;;;;45.40;31.60;;;;;;;22.45;97.88;100900.47;4989750;28;20081;-72
2022/08/17 07:35:11;;;;;;;44.85;32.22;;;;;;;22.23;98.12;100899.28;4985636;28;20041;-71
2022/08/17 07:37:44;;;;;;;43.30;30.65;;;;;;;22.22;99.69;100898.44;4991794;28;20045;-71
2022/08/17 07:40:25;;;;;;;42.90;31.08;;;;;;;22.22;97.37;100909.31;4965950;28;20041;-71
2022/08/17 07:43:14;;;;;;;46.35;31.33;;;;;;;22.58;94.83;100899.91;4997383;28;20052;-71
2022/08/17 07:48:37;;;;;;;48.63;30.85;;;;;;;22.39;95.52;100910.16;4989856;28;20054;-71
2022/08/17 07:51:17;;;;;;;47.38;32.33;;;;;;;22.58;95.53;100910.78;4982954;28;20107;-71
2022/08/17 07:53:44;;;;;;;50.25;30.60;;;;;;;22.45;95.65;100916.75;4969695;28;20138;-71
2022/08/17 07:56:12;;;;;;;51.28;31.23;;;;;;;22.67;96.12;100921.44;4990950;28;20962;-71
2022/08/17 07:58:38;;;;;;;43.58;30.55;;;;;;;22.73;94.83;100920.75;4988272;28;20632;-71
2022/08/17 08:01:10;;;;;;;43.03;30.48;;;;;;;23.05;91.95;100921.72;4992689;28;20046;-71
2022/08/17 08:03:42;;;;;;;49.03;31.95;;;;;;;22.95;94.96;100927.34;4990275;28;20095;-71
2022/08/17 08:06:19;;;;;;;42.05;30.90;;;;;;;22.91;94.94;100933.31;4984611;28;20022;-71
2022/08/17 08:08:54;;;;;;;48.60;34.30;;;;;;;23.32;92.36;100927.69;4973249;28;20111;-71
2022/08/17 08:11:34;;;;;;;46.83;33.42;;;;;;;23.10;94.04;100932.91;4991553;28;20034;-71
2022/08/17 08:14:20;;;;;;;47.58;32.90;;;;;;;23.25;96.00;100924.84;4987080;28;20583;-71
2022/08/17 08:17:00;;;;;;;47.67;32.90;;;;;;;23.34;92.97;100929.19;4990572;28;20053;-71
2022/08/17 08:19:28;;;;;;;51.10;34.53;;;;;;;23.32;93.73;100930.41;4988247;28;20108;-70
2022/08/17 08:22:17;;;;;;;50.60;33.40;;;;;;;23.28;93.68;100929.91;4996189;28;20048;-71
2022/08/17 08:25:07;;;;;;;47.55;32.42;;;;;;;23.03;94.53;100921.00;4989412;28;21211;-70
2022/08/17 08:27:47;;;;;;;46.53;31.65;;;;;;;23.38;92.64;100918.81;4987544;28;20184;-71
2022/08/17 08:30:17;;;;;;;48.80;34.15;;;;;;;23.71;91.62;100912.16;4968225;28;20536;-71
2022/08/17 08:33:26;;;;;;;49.38;33.22;;;;;;;23.98;89.46;100921.66;4976938;28;20052;-71
2022/08/17 08:36:36;;;;;;;48.33;33.08;;;;;;;24.41;86.44;100922.00;4979629;28;20046;-71
2022/08/17 08:39:23;;;;;;;50.22;33.20;;;;;;;25.03;82.17;100921.63;4957777;28;20069;-71
2022/08/17 08:42:14;;;;;;;41.85;31.23;;;;;;;24.95;82.23;100929.91;4989042;28;20061;-71
2022/08/17 08:44:55;;;;;;;45.75;30.25;;;;;;;24.70;81.52;100929.34;4971929;28;20034;-71
2022/08/17 08:47:49;;;;;;;47.90;30.70;;;;;;;24.08;86.32;100929.56;4989978;28;20046;-71
2022/08/17 08:50:27;;;;;;;46.75;30.33;;;;;;;24.00;84.32;100935.09;4979729;28;20053;-71
2022/08/17 08:53:22;;;;;;;42.30;29.90;;;;;;;24.20;83.03;100924.56;4980993;28;20093;-69
2022/08/17 08:56:04;;;;;;;40.78;28.15;;;;;;;24.09;79.49;100927.69;4981004;28;20932;-71
2022/08/17 08:58:49;;;;;;;43.40;29.70;;;;;;;24.41;82.61;100937.50;4993771;28;20626;-71
2022/08/17 09:01:25;;;;;;;45.33;29.95;;;;;;;25.16;80.30;100948.28;4989012;28;20539;-71
2022/08/17 09:04:13;;;;;;;45.40;30.33;;;;;;;25.10;77.03;100954.47;4987200;28;20349;-71
2022/08/17 09:06:48;;;;;;;45.15;29.45;;;;;;;24.52;80.99;100950.69;4968837;28;21163;-71
2022/08/17 09:09:29;;;;;;;49.10;30.65;;;;;;;25.23;76.61;100957.38;4986429;28;20797;-71
2022/08/17 09:11:57;;;;;;;40.47;28.83;;;;;;;24.89;78.12;100951.63;4986586;28;20096;-71
2022/08/17 09:14:39;;;;;;;42.05;29.92;;;;;;;25.32;78.83;100949.94;4972591;28;20030;-71
2022/08/17 09:17:12;;;;;;;47.03;27.70;;;;;;;25.72;81.77;100944.94;4986286;28;20037;-72
2022/08/17 09:20:00;;;;;;;42.05;29.50;;;;;;;24.75;78.71;100942.41;4975785;28;20029;-71
2022/08/17 09:22:41;;;;;;;42.20;29.55;;;;;;;25.48;75.60;100949.72;4987100;28;20119;-70
2022/08/17 09:25:25;;;;;;;36.45;27.83;;;;;;;26.39;73.96;100943.69;4975756;28;20112;-70
2022/08/17 09:27:59;;;;;;;37.00;28.02;;;;;;;26.15;72.56;100942.22;4983669;28;20132;-71
2022/08/17 09:30:35;;;;;;;38.58;28.65;;;;;;;25.67;75.80;100945.53;4989595;28;20986;-71
2022/08/17 09:33:06;;;;;;;38.85;29.83;;;;;;;25.61;76.37;100940.84;4994044;28;20828;-71
2022/08/17 09:35:38;;;;;;;38.47;29.55;;;;;;;25.12;78.75;100935.19;4975217;28;20033;-71
2022/08/17 09:38:10;;;;;;;40.47;28.48;;;;;;;25.20;77.83;100930.50;4993062;28;20042;-71
2022/08/17 09:40:47;;;;;;;39.38;28.10;;;;;;;25.03;78.10;100932.53;4993994;28;20037;-71
2022/08/17 09:43:37;;;;;;;46.80;30.58;;;;;;;25.42;82.00;100908.69;4976628;28;20081;-71
2022/08/17 09:46:13;;;;;;;41.17;29.92;;;;;;;25.33;78.24;100907.94;4981521;28;20038;-71
2022/08/17 09:48:45;;;;;;;44.50;28.58;;;;;;;25.42;79.32;100914.16;4994294;28;20474;-72
2022/08/17 09:51:23;;;;;;;42.38;28.67;;;;;;;25.72;75.73;100921.19;4998016;28;20115;-71
2022/08/17 09:53:49;;;;;;;41.83;27.40;;;;;;;24.85;77.13;100917.56;4984820;28;20045;-71
2022/08/17 09:56:39;;;;;;;39.22;28.63;;;;;;;24.77;78.32;100918.53;4993970;28;20041;-70
2022/08/17 09:59:22;;;;;;;37.22;27.73;;;;;;;24.59;78.86;100918.03;5000035;28;20045;-71
2022/08/17 10:02:08;;;;;;;37.97;27.17;;;;;;;24.83;78.33;100914.19;4997188;28;20046;-71
2022/08/17 10:04:48;;;;;;;39.50;28.95;;;;;;;24.85;78.51;100914.84;4965765;28;20046;-71
2022/08/17 10:07:46;;;;;;;39.30;28.70;;;;;;;24.85;80.47;100907.53;5000560;28;20757;-71
2022/08/17 10:10:16;;;;;;;39.80;28.40;;;;;;;24.71;78.19;100914.69;4997064;28;20064;-71
2022/08/17 10:12:53;;;;;;;49.47;31.50;;;;;;;24.69;78.88;100914.00;4992711;28;20045;-72
2022/08/17 10:15:35;;;;;;;42.92;30.15;;;;;;;24.60;79.25;100909.69;4997281;28;20111;-71
2022/08/17 10:18:19;;;;;;;39.40;29.20;;;;;;;24.94;79.68;100917.28;4996196;28;20506;-71
2022/08/17 10:26:11;;;;;;;43.35;29.58;;;;;;;24.77;79.88;100921.25;4994563;28;20042;-71
2022/08/17 10:26:36;;;;;;;43.55;29.33;;;;;;;24.82;78.14;100929.72;4994173;28;20085;-71
2022/08/17 10:29:15;;;;;;;39.15;26.88;;;;;;;25.25;76.91;100938.09;5005209;28;20045;-71
2022/08/17 10:31:50;;;;;;;44.83;28.75;;;;;;;25.48;75.27;100940.69;4978418;28;20037;-71
2022/08/17 10:34:38;;;;;;;45.70;31.55;;;;;;;25.55;75.00;100947.06;4977849;28;20365;-71
2022/08/17 10:37:32;;;;;;;44.97;30.75;;;;;;;25.48;75.25;100949.72;4983858;28;20671;-71
2022/08/17 10:40:44;;;;;;;47.40;30.98;;;;;;;25.51;74.42;100951.22;4993414;28;21098;-71
2022/08/17 10:43:43;;;;;;;47.40;31.35;;;;;;;25.11;77.01;100958.06;4938964;28;20094;-72
2022/08/17 10:46:26;;;;;;;45.65;30.13;;;;;;;25.43;76.70;100957.63;4944665;28;20058;-72
2022/08/17 10:49:34;;;;;;;40.58;29.08;;;;;;;25.39;79.76;100959.06;4922312;28;20470;-71
2022/08/17 10:52:22;;;;;;;53.00;30.20;;;;;;;25.42;75.85;100966.88;4864599;29;20119;-71
2022/08/17 10:54:50;;;;;;;41.65;28.33;;;;;;;25.30;76.92;100979.31;4861703;29;20059;-70
2022/08/17 10:57:28;;;;;;;47.70;30.25;;;;;;;25.27;76.27;100979.69;4864630;29;20071;-72
2022/08/17 10:59:56;;;;;;;43.75;29.40;;;;;;;25.37;75.35;100988.44;4865727;29;21051;-71
2022/08/17 11:02:24;;;;;;;37.88;29.55;;;;;;;25.58;75.38;100980.28;4845560;29;20032;-70
2022/08/17 11:04:58;;;;;;;38.80;27.85;;;;;;;25.90;71.98;100971.84;4866380;29;20137;-70
2022/08/17 11:07:37;;;;;;;38.40;28.20;;;;;;;25.83;72.04;100971.78;4865816;29;20056;-71
2022/08/17 11:10:22;;;;;;;43.35;29.00;;;;;;;26.26;72.61;100980.84;4866547;29;20061;-71
2022/08/17 11:13:00;;;;;;;40.72;28.48;;;;;;;26.48;77.63;100980.84;4860536;29;20872;-71
2022/08/17 11:15:37;;;;;;;40.63;29.42;;;;;;;26.31;71.97;100981.09;4865971;29;20123;-72
2022/08/17 11:18:20;;;;;;;40.70;29.35;;;;;;;26.12;73.34;100984.47;4862469;29;20082;-71
2022/08/17 11:21:23;;;;;;;41.55;29.10;;;;;;;25.79;77.93;100984.13;4883849;29;20128;-70
2022/08/17 11:24:16;;;;;;;38.30;28.27;;;;;;;25.91;74.02;100990.78;4902182;29;20124;-71
2022/08/17 11:26:57;;;;;;;42.17;30.63;;;;;;;25.96;76.03;100991.06;4904123;29;20060;-71
2022/08/17 11:29:28;;;;;;;41.40;30.33;;;;;;;26.20;77.35;100986.22;4899174;29;20054;-71
2022/08/17 11:32:12;;;;;;;45.33;29.63;;;;;;;26.08;80.13;100984.03;4898476;29;20846;-70
2022/08/17 11:34:40;;;;;;;41.83;30.85;;;;;;;26.05;76.49;100984.41;4903642;29;20049;-70
2022/08/17 11:37:19;;;;;;;38.85;29.13;;;;;;;26.13;81.60;100990.78;4882265;29;20050;-70
2022/08/17 11:40:05;;;;;;;48.25;32.15;;;;;;;25.94;79.33;100992.28;4901384;29;20558;-71
2022/08/17 11:42:52;;;;;;;46.72;32.47;;;;;;;25.88;79.39;100980.25;4888572;29;20059;-70
2022/08/17 11:45:30;;;;;;;51.85;33.55;;;;;;;25.63;80.59;100984.34;4898875;29;20059;-70
2022/08/17 11:54:04;;;;;;;54.42;34.33;;;;;;;25.39;78.42;100996.44;4896741;29;20083;-70
2022/08/17 11:56:32;;;;;;;47.25;34.70;;;;;;;25.10;84.21;100997.28;4896426;29;20039;-70
2022/08/17 11:58:59;;;;;;;47.40;31.33;;;;;;;24.68;94.37;100996.03;4983385;28;20401;-70